Time;durP1;ratioP1;P1;durP2;ratioP2;P2;SDS_P1;SDS_P2;PMS_P1;PMS_P2;Temp;Humidity;BMP_temperature;BMP_pressure;BME280_temperature;BME280_humidity;BME280_pressure;Samples;Min_cycle;Max_cycle;Signal;HPM_P1;HPM_P2
2021/11/11 00:01:42;;;;;;;23.85;15.65;;;;;;;;;;6336580;22;19984;-79
2021/11/11 00:04:11;;;;;;;20.67;16.00;;;;;;;;;;6334756;22;20004;-78
2021/11/11 00:06:39;;;;;;;22.92;16.85;;;;;;;;;;6336935;22;19987;-78
2021/11/11 00:09:05;;;;;;;20.67;16.55;;;;;;;;;;6332831;22;19994;-78
2021/11/11 00:11:32;;;;;;;21.05;15.57;;;;;;;;;;6334977;22;19987;-78
2021/11/11 00:13:58;;;;;;;21.90;16.27;;;;;;;;;;6334195;22;20008;-78
2021/11/11 00:16:24;;;;;;;22.27;16.55;;;;;;;;;;6336202;22;20047;-75
2021/11/11 00:18:53;;;;;;;22.05;15.85;;;;;;;;;;6333103;22;20050;-78
2021/11/11 00:21:19;;;;;;;21.25;16.38;;;;;;;;;;6333531;22;19990;-79
2021/11/11 00:24:02;;;;;;;23.05;16.00;;;;;;;;;;6336387;22;20106;-77
2021/11/11 00:26:55;;;;;;;21.55;15.68;;;;;;;;;;6334839;22;20003;-79
2021/11/11 00:29:22;;;;;;;20.02;15.68;;;;;;;;;;6336249;22;20033;-79
2021/11/11 00:31:48;;;;;;;19.88;15.07;;;;;;;;;;6335400;22;20022;-77
2021/11/11 00:34:45;;;;;;;20.08;15.38;;;;;;;;;;6334357;22;19999;-78
2021/11/11 00:37:14;;;;;;;21.42;15.75;;;;;;;;;;6333981;22;20022;-78
2021/11/11 00:39:58;;;;;;;20.63;15.73;;;;;;;;;;6298504;22;20039;-76
2021/11/11 00:42:35;;;;;;;22.40;16.15;;;;;;;;;;6303251;22;20011;-77
2021/11/11 00:45:02;;;;;;;22.15;15.65;;;;;;;;;;6304042;22;20084;-78
2021/11/11 00:47:28;;;;;;;21.17;15.80;;;;;;;;;;6302336;22;20014;-78
2021/11/11 00:49:54;;;;;;;22.30;16.38;;;;;;;;;;6303164;22;19992;-78
2021/11/11 00:52:39;;;;;;;21.08;15.45;;;;;;;;;;6277971;22;20019;-76
2021/11/11 00:55:06;;;;;;;19.33;15.48;;;;;;;;;;6273856;22;20046;-79
2021/11/11 00:57:32;;;;;;;21.67;15.35;;;;;;;;;;6304085;22;19988;-79
2021/11/11 00:59:58;;;;;;;21.23;15.98;;;;;;;;;;6304108;22;20012;-78
2021/11/11 01:05:39;;;;;;;21.45;15.80;;;;;;;;;;6304673;22;20002;-76
2021/11/11 01:08:06;;;;;;;20.33;15.32;;;;;;;;;;6277101;22;19988;-76
2021/11/11 01:10:33;;;;;;;22.33;15.55;;;;;;;;;;6319288;22;19995;-76
2021/11/11 01:12:59;;;;;;;22.55;16.35;;;;;;;;;;6337682;22;19983;-78
2021/11/11 01:15:27;;;;;;;18.45;15.73;;;;;;;;;;6336231;22;20019;-76
2021/11/11 01:17:53;;;;;;;21.55;16.40;;;;;;;;;;6337086;22;19987;-77
2021/11/11 01:20:20;;;;;;;20.35;15.80;;;;;;;;;;6336279;22;19983;-78
2021/11/11 01:25:55;;;;;;;22.65;15.93;;;;;;;;;;6336737;22;20042;-79
2021/11/11 01:29:12;;;;;;;19.45;15.43;;;;;;;;;;6333116;22;20030;-75
2021/11/11 01:31:42;;;;;;;21.77;14.95;;;;;;;;;;6303530;22;20015;-78
2021/11/11 01:34:08;;;;;;;20.50;16.38;;;;;;;;;;6301884;22;19988;-78
2021/11/11 01:36:34;;;;;;;20.90;15.23;;;;;;;;;;6302549;22;20004;-77
2021/11/11 01:39:00;;;;;;;19.88;14.45;;;;;;;;;;6318485;22;20019;-75
2021/11/11 01:41:27;;;;;;;20.05;15.15;;;;;;;;;;6335268;22;19991;-79
2021/11/11 01:43:53;;;;;;;22.15;16.08;;;;;;;;;;6331080;22;20011;-75
2021/11/11 01:46:19;;;;;;;23.00;16.15;;;;;;;;;;6334804;22;20027;-74
2021/11/11 01:48:45;;;;;;;23.17;16.08;;;;;;;;;;6327702;22;19999;-77
2021/11/11 01:51:11;;;;;;;21.67;15.02;;;;;;;;;;6335852;22;19995;-78
2021/11/11 01:56:54;;;;;;;22.40;15.20;;;;;;;;;;6336174;22;20010;-78
2021/11/11 01:59:22;;;;;;;21.05;15.63;;;;;;;;;;6334953;22;20011;-79
2021/11/11 02:02:13;;;;;;;22.48;15.88;;;;;;;;;;6334485;22;19991;-78
2021/11/11 02:07:45;;;;;;;21.02;15.15;;;;;;;;;;6334623;22;20010;-77
2021/11/11 02:10:12;;;;;;;23.48;15.95;;;;;;;;;;6333436;22;20045;-81
2021/11/11 02:12:54;;;;;;;19.55;15.18;;;;;;;;;;6256302;22;19995;-79
2021/11/11 02:18:55;;;;;;;21.27;16.48;;;;;;;;;;6335054;22;20028;-78
2021/11/11 02:23:47;;;;;;;19.67;16.13;;;;;;;;;;6366932;22;20010;-79
2021/11/11 02:26:13;;;;;;;22.15;16.33;;;;;;;;;;6336088;22;20038;-79
2021/11/11 02:28:46;;;;;;;21.35;15.82;;;;;;;;;;6335889;22;20007;-76
2021/11/11 02:31:37;;;;;;;21.98;16.50;;;;;;;;;;6272233;23;20027;-76
2021/11/11 02:37:14;;;;;;;23.02;17.23;;;;;;;;;;6271784;22;19995;-79
2021/11/11 02:40:23;;;;;;;24.45;16.38;;;;;;;;;;6211872;22;20017;-77
2021/11/11 02:43:09;;;;;;;22.17;16.77;;;;;;;;;;6209473;23;20013;-79
2021/11/11 02:45:53;;;;;;;24.08;15.48;;;;;;;;;;6211176;22;19989;-76
2021/11/11 02:51:37;;;;;;;23.25;18.13;;;;;;;;;;6212470;22;20036;-76
2021/11/11 02:54:03;;;;;;;;;;;;;;;;;;6186187;23;20020;-77
2021/11/11 02:56:29;;;;;;;22.02;15.95;;;;;;;;;;6186600;23;19895;-77
2021/11/11 03:01:41;;;;;;;22.17;15.45;;;;;;;;;;6208742;23;20044;-77
2021/11/11 03:04:08;;;;;;;23.05;17.20;;;;;;;;;;6208341;22;20016;-76
2021/11/11 03:06:37;;;;;;;24.15;16.70;;;;;;;;;;6211204;23;19996;-76
2021/11/11 03:09:11;;;;;;;23.00;18.23;;;;;;;;;;6288036;22;20056;-78
2021/11/11 03:11:56;;;;;;;23.73;17.05;;;;;;;;;;6291370;22;20064;-77
2021/11/11 03:14:24;;;;;;;25.13;17.10;;;;;;;;;;6208811;23;19985;-76
2021/11/11 03:16:50;;;;;;;26.35;18.58;;;;;;;;;;6212766;23;20004;-76
2021/11/11 03:19:55;;;;;;;23.58;17.23;;;;;;;;;;6212548;23;20065;-80
2021/11/11 03:22:50;;;;;;;21.88;16.58;;;;;;;;;;6121637;23;19987;-78
2021/11/11 03:25:22;;;;;;;23.88;16.55;;;;;;;;;;6097656;23;20026;-78
2021/11/11 03:28:01;;;;;;;23.60;17.15;;;;;;;;;;6098675;23;20006;-78
2021/11/11 03:30:53;;;;;;;20.50;16.63;;;;;;;;;;6122631;23;20015;-75
2021/11/11 03:33:35;;;;;;;22.88;15.43;;;;;;;;;;6124552;23;20006;-75
2021/11/11 03:36:01;;;;;;;22.38;16.23;;;;;;;;;;6099085;23;20017;-74
2021/11/11 03:38:27;;;;;;;21.83;16.42;;;;;;;;;;6124443;23;20043;-76
2021/11/11 03:40:55;;;;;;;24.50;16.42;;;;;;;;;;6125070;23;19998;-77
2021/11/11 03:43:21;;;;;;;21.05;15.73;;;;;;;;;;6121896;23;20012;-75
2021/11/11 03:45:53;;;;;;;22.45;17.35;;;;;;;;;;6185642;23;20017;-76
2021/11/11 03:48:22;;;;;;;20.77;16.20;;;;;;;;;;6191498;23;20051;-77
2021/11/11 03:50:48;;;;;;;26.20;16.45;;;;;;;;;;6242137;22;20011;-76
2021/11/11 03:53:14;;;;;;;22.75;16.25;;;;;;;;;;6217567;23;20009;-77
2021/11/11 03:55:43;;;;;;;23.17;17.23;;;;;;;;;;6261488;22;19984;-77
2021/11/11 03:58:15;;;;;;;23.77;17.75;;;;;;;;;;6333470;22;20040;-79
2021/11/11 04:00:43;;;;;;;22.80;16.50;;;;;;;;;;6332466;22;19980;-79
2021/11/11 04:03:09;;;;;;;19.83;14.30;;;;;;;;;;6329933;22;20003;-78
2021/11/11 04:05:35;;;;;;;22.60;16.65;;;;;;;;;;6335303;22;20043;-76
2021/11/11 04:08:01;;;;;;;24.30;16.17;;;;;;;;;;6331774;22;20000;-77
2021/11/11 04:10:27;;;;;;;23.38;15.82;;;;;;;;;;6330021;22;20006;-75
2021/11/11 04:12:56;;;;;;;22.92;16.63;;;;;;;;;;6329674;22;20000;-79
2021/11/11 04:15:22;;;;;;;22.40;16.08;;;;;;;;;;6333112;22;20043;-77
2021/11/11 04:17:48;;;;;;;23.50;17.20;;;;;;;;;;6333079;22;20043;-77
2021/11/11 04:20:17;;;;;;;24.15;17.10;;;;;;;;;;6331792;22;20074;-77
2021/11/11 04:22:43;;;;;;;22.80;16.92;;;;;;;;;;6332359;22;19987;-76
2021/11/11 04:28:36;;;;;;;23.48;17.33;;;;;;;;;;6210416;23;20023;-77
2021/11/11 04:31:11;;;;;;;23.05;15.98;;;;;;;;;;6212569;23;20027;-76
2021/11/11 04:33:42;;;;;;;22.70;16.00;;;;;;;;;;6183262;23;20029;-79
2021/11/11 04:39:18;;;;;;;23.27;16.02;;;102.90;2227.20;;;;;;6095919;23;19991;-78
2021/11/11 05:03:39;;;;;;;24.35;18.05;;;102.70;2227.20;;;;;;6046880;23;19992;-79
2021/11/11 05:06:06;;;;;;;23.00;16.50;;;102.70;2227.20;;;;;;6182425;23;20010;-76
2021/11/11 05:08:32;;;;;;;26.35;17.40;;;102.70;2227.20;;;;;;6319051;22;20019;-79
2021/11/11 05:10:58;;;;;;;24.63;17.67;;;102.80;2227.20;;;;;;6334025;22;20011;-76
2021/11/11 05:13:25;;;;;;;25.70;18.63;;;102.70;2227.20;;;;;;6336803;22;20006;-75
2021/11/11 05:15:51;;;;;;;23.73;17.52;;;102.70;2227.20;;;;;;6336428;22;20013;-77
2021/11/11 05:18:18;;;;;;;24.90;17.70;;;102.70;2227.20;;;;;;6337266;22;19995;-74
2021/11/11 05:20:56;;;;;;;23.40;17.67;;;102.70;2227.20;;;;;;6335390;22;19998;-77
2021/11/11 05:23:59;;;;;;;23.47;17.30;;;102.80;2227.20;;;;;;6333345;22;19983;-76
2021/11/11 05:26:29;;;;;;;23.83;17.67;;;102.80;2227.20;;;;;;6328912;22;19987;-75
2021/11/11 05:28:55;;;;;;;31.27;18.13;;;102.80;2227.20;;;;;;6335544;22;20035;-75
2021/11/11 05:31:20;;;;;;;22.90;16.83;;;102.70;2227.20;;;;;;6335908;22;20008;-74
2021/11/11 05:34:06;;;;;;;25.92;16.58;;;102.70;2227.20;;;;;;6334576;22;20371;-74
2021/11/11 05:36:32;;;;;;;26.90;17.52;;;102.70;2227.20;;;;;;6333570;22;20003;-76
2021/11/11 05:38:57;;;;;;;25.60;17.20;;;102.70;2227.20;;;;;;6334831;22;19997;-78
2021/11/11 05:41:29;;;;;;;24.98;17.85;;;102.70;2227.20;;;;;;6331290;22;20018;-76
2021/11/11 05:43:55;;;;;;;22.02;16.42;;;102.70;2227.20;;;;;;6334127;22;20014;-74
2021/11/11 05:46:20;;;;;;;26.13;16.20;;;102.70;2227.20;;;;;;6330920;22;19976;-74
2021/11/11 05:51:37;;;;;;;26.08;17.45;;;102.50;2227.20;;;;;;6335598;22;20003;-75
2021/11/11 05:54:02;;;;;;;24.35;17.55;;;102.70;2227.20;;;;;;6334228;22;19991;-77
2021/11/11 05:56:28;;;;;;;23.83;16.67;;;102.70;2227.20;;;;;;6334776;22;19995;-75
2021/11/11 05:58:59;;;;;;;21.90;16.27;;;102.80;2227.20;;;;;;6336342;22;19984;-79
2021/11/11 06:01:25;;;;;;;21.75;16.15;;;102.80;2227.20;;;;;;6336336;22;20106;-78
2021/11/11 06:03:51;;;;;;;23.15;17.75;;;102.80;2227.20;;;;;;6332653;22;20002;-74
2021/11/11 06:06:17;;;;;;;25.83;16.52;;;102.80;2227.20;;;;;;6335542;22;20064;-75
2021/11/11 06:08:45;;;;;;;23.70;17.00;;;102.80;2227.20;;;;;;6336612;22;20012;-75
2021/11/11 06:12:14;;;;;;;24.35;17.15;;;102.90;2227.20;;;;;;6334656;22;20003;-78
2021/11/11 06:14:41;;;;;;;24.15;17.27;;;102.90;2227.20;;;;;;6323684;22;20019;-74
2021/11/11 06:17:29;;;;;;;22.85;18.35;;;102.90;2227.20;;;;;;6326028;22;20010;-75
2021/11/11 06:19:56;;;;;;;23.80;17.30;;;103.00;2227.20;;;;;;6332173;22;20029;-76
2021/11/11 06:22:22;;;;;;;28.27;20.45;;;103.10;2227.20;;;;;;6329063;22;19995;-78
2021/11/11 06:24:48;;;;;;;22.55;17.67;;;103.20;2227.20;;;;;;6330474;22;19999;-76
2021/11/11 06:27:17;;;;;;;21.67;16.98;;;103.30;2227.20;;;;;;6331078;22;20006;-79
2021/11/11 06:30:07;;;;;;;29.08;19.75;;;128.00;2252.80;;;;;;6332675;22;20003;-73
2021/11/11 06:32:43;;;;;;;21.63;17.02;;;128.00;2252.80;;;;;;6269399;22;20020;-76
2021/11/11 06:35:50;;;;;;;42.75;25.67;;;128.10;2252.80;;;;;;6270000;22;20000;-77
2021/11/11 06:38:16;;;;;;;26.40;17.42;;;128.10;2252.80;;;;;;6239486;23;20060;-76
2021/11/11 06:40:42;;;;;;;26.52;18.65;;;128.20;2252.80;;;;;;6240950;23;20015;-73
2021/11/11 06:43:21;;;;;;;22.65;15.80;;;128.10;2252.80;;;;;;6226461;23;20008;-76
2021/11/11 06:45:54;;;;;;;23.45;16.23;;;128.20;2252.80;;;;;;6199701;23;19997;-79
2021/11/11 06:48:20;;;;;;;26.23;17.13;;;128.20;2252.80;;;;;;6201200;23;20015;-77
2021/11/11 06:50:47;;;;;;;21.02;16.10;;;128.30;2252.80;;;;;;6192373;23;20051;-77
2021/11/11 06:53:16;;;;;;;21.63;14.98;;;128.40;2252.80;;;;;;6219832;23;20032;-77
2021/11/11 06:56:02;;;;;;;19.65;15.30;;;;;;;;;;6226342;23;20024;-78
2021/11/11 06:58:30;;;;;;;20.27;14.88;;;;;;;;;;6205772;23;20070;-78
2021/11/11 07:00:58;;;;;;;19.58;14.43;;;;;;;;;;6216681;23;20011;-77
2021/11/11 07:03:36;;;;;;;18.77;15.13;;;;;;;;;;6208579;23;19999;-80
2021/11/11 07:06:06;;;;;;;20.08;16.20;;;;;;;;;;6228124;23;20048;-80
2021/11/11 07:08:32;;;;;;;17.02;13.65;;;;;;;;;;6230722;22;20153;-79
2021/11/11 07:10:58;;;;;;;18.40;13.70;;;;;;;;;;6287876;22;20047;-78
2021/11/11 07:13:26;;;;;;;15.73;13.05;;;;;;;;;;6320357;22;20010;-79
2021/11/11 07:15:52;;;;;;;15.85;13.40;;;;;;;;;;6319903;22;20007;-76
2021/11/11 07:18:28;;;;;;;20.65;14.02;;;;;;;;;;6323022;22;20026;-78
2021/11/11 07:20:55;;;;;;;18.33;13.45;;;;;;;;;;6329173;22;20013;-78
2021/11/11 07:23:23;;;;;;;15.40;12.82;;;;;;;;;;6336289;22;20007;-80
2021/11/11 07:25:52;;;;;;;19.55;15.50;;;;;;;;;;6337736;22;19988;-78
2021/11/11 07:28:21;;;;;;;35.45;23.27;;;;;;;;;;6328657;22;19991;-79
2021/11/11 07:30:47;;;;;;;50.65;30.50;;;;;;;;;;6338145;22;19991;-80
2021/11/11 07:33:14;;;;;;;46.50;29.60;;;;;;;;;;6338392;22;19983;-80
2021/11/11 07:35:42;;;;;;;26.98;20.42;;;;;;;;;;6337950;22;19988;-78
2021/11/11 07:38:09;;;;;;;25.98;17.88;;;;;;;;;;6337811;22;19990;-81
2021/11/11 07:40:36;;;;;;;26.67;19.58;;;;;;;;;;6337588;22;19991;-79
2021/11/11 07:43:02;;;;;;;26.38;20.35;;;;;;;;;;6337689;22;19999;-78
2021/11/11 07:45:29;;;;;;;28.50;20.38;;;;;;;;;;6337818;22;19990;-76
2021/11/11 07:48:01;;;;;;;20.65;15.73;;;;;;;;;;6335777;22;19994;-78
2021/11/11 07:50:27;;;;;;;17.50;14.23;;;;;;;;;;6331853;22;20026;-77
2021/11/11 07:52:56;;;;;;;16.58;13.40;;;;;;;;;;6335584;22;19984;-81
2021/11/11 07:55:23;;;;;;;18.65;13.10;;;;;;;;;;6334569;22;19991;-80
2021/11/11 07:57:50;;;;;;;15.75;11.80;;;;;;;;;;6335847;22;20004;-80
2021/11/11 08:00:16;;;;;;;16.90;14.05;;;;;;;;;;6336589;22;20003;-80
2021/11/11 08:02:46;;;;;;;17.15;12.10;;;;;;;;;;6333076;22;19992;-76
2021/11/11 08:05:14;;;;;;;15.13;12.45;;;;;;;;;;6335921;22;19983;-79
2021/11/11 08:07:42;;;;;;;18.00;14.45;;;;;;;;;;6334950;22;20074;-80
2021/11/11 08:10:09;;;;;;;17.92;13.05;;;;;;;;;;6335794;22;19999;-79
2021/11/11 08:12:35;;;;;;;21.65;17.50;;;;;;;;;;6335294;22;20010;-80
2021/11/11 08:15:01;;;;;;;17.10;14.23;;;;;;;;;;6332941;22;20003;-79
2021/11/11 08:17:27;;;;;;;18.63;13.05;;;;;;;;;;6335377;22;20078;-76
2021/11/11 08:19:56;;;;;;;19.42;15.07;;;;;;;;;;6337815;22;20015;-79
2021/11/11 08:22:26;;;;;;;26.77;18.73;;;;;;;;;;6336384;22;20004;-80
2021/11/11 08:24:52;;;;;;;29.25;20.38;;;;;;;;;;6334303;22;20021;-76
2021/11/11 08:27:19;;;;;;;20.80;13.63;;;;;;;;;;6335271;22;20002;-76
2021/11/11 08:29:45;;;;;;;17.33;14.10;;;;;;;;;;6335072;22;20003;-78
2021/11/11 08:32:12;;;;;;;16.65;13.35;;;;;;;;;;6337263;22;19999;-77
2021/11/11 08:34:38;;;;;;;16.88;13.25;;;;;;;;;;6334161;22;19987;-78
2021/11/11 08:37:05;;;;;;;17.88;12.02;;;;;;;;;;6335784;22;19994;-78
2021/11/11 08:39:31;;;;;;;20.88;12.60;;;;;;;;;;6337556;22;19990;-80
2021/11/11 08:41:58;;;;;;;16.88;12.45;;;;;;;;;;6336710;22;20010;-77
2021/11/11 08:44:24;;;;;;;17.55;12.77;;;;;;;;;;6335206;22;20035;-79
2021/11/11 08:46:50;;;;;;;18.60;12.85;;;;;;;;;;6337882;22;19995;-80
2021/11/11 08:49:18;;;;;;;13.70;11.60;;;;;;;;;;6335603;22;20014;-76
2021/11/11 08:51:49;;;;;;;16.83;12.77;;;;;;;;;;6335763;22;20005;-79
2021/11/11 08:54:16;;;;;;;19.05;13.73;;;;;;;;;;6337581;22;19980;-81
2021/11/11 08:57:22;;;;;;;17.80;12.98;;;;;;;;;;6337095;22;20011;-80
2021/11/11 08:59:54;;;;;;;15.55;12.63;;;;;;;;;;6337178;22;20004;-76
2021/11/11 09:02:21;;;;;;;18.02;13.63;;;;;;;;;;6336951;22;19995;-79
2021/11/11 09:04:49;;;;;;;17.17;12.73;;;;;;;;;;6337614;22;19983;-80
2021/11/11 09:07:17;;;;;;;16.40;12.35;;;;;;;;;;6336874;22;19991;-76
2021/11/11 09:09:44;;;;;;;16.77;13.07;;;;;;;;;;6333084;22;19995;-80
2021/11/11 09:12:10;;;;;;;16.80;12.68;;;;;;;;;;6331503;22;19999;-80
2021/11/11 09:14:36;;;;;;;18.65;12.95;;;;;;;;;;6333649;22;19987;-81
2021/11/11 09:17:02;;;;;;;14.68;11.73;;;;;;;;;;6335474;22;19983;-80
2021/11/11 09:19:29;;;;;;;16.45;11.52;;;;;;;;;;6335148;22;20007;-80
2021/11/11 09:21:55;;;;;;;20.60;11.57;;;;;;;;;;6335229;22;20006;-79
2021/11/11 09:24:21;;;;;;;15.23;11.40;;;;;;;;;;6334413;22;19995;-80
2021/11/11 09:26:47;;;;;;;17.25;11.25;;;;;;;;;;6335615;22;20017;-80
2021/11/11 09:29:13;;;;;;;18.13;12.77;;;;;;;;;;6329191;22;20062;-76
2021/11/11 09:31:39;;;;;;;17.25;13.02;;;;;;;;;;6334564;22;20023;-79
2021/11/11 09:34:06;;;;;;;18.83;13.05;;;;;;;;;;6334056;22;20004;-80
2021/11/11 09:36:32;;;;;;;15.85;11.68;;;;;;;;;;6334761;22;20007;-77
2021/11/11 09:38:59;;;;;;;20.35;11.48;;;;;;;;;;6334802;22;19999;-79
2021/11/11 09:41:25;;;;;;;14.73;11.45;;;;;;;;;;6334011;22;20049;-78
2021/11/11 09:43:52;;;;;;;16.23;11.00;;;;;;;;;;6335219;22;19981;-80
2021/11/11 09:46:21;;;;;;;16.35;11.38;;;;;;;;;;6335246;22;20004;-78
2021/11/11 09:48:49;;;;;;;16.60;11.15;;;;;;;;;;6335093;22;20021;-80
2021/11/11 09:51:18;;;;;;;14.80;11.48;;;;;;;;;;6333611;22;20023;-76
2021/11/11 09:54:01;;;;;;;16.58;11.95;;;;;;;;;;6332915;22;20003;-79
2021/11/11 09:59:12;;;;;;;19.65;10.95;;;;;;;;;;6333978;22;20455;-79
2021/11/11 10:01:38;;;;;;;16.58;11.75;;;;;;;;;;6336119;22;19991;-79
2021/11/11 10:04:05;;;;;;;15.93;11.95;;;;;;;;;;6331695;22;19989;-76
2021/11/11 10:06:31;;;;;;;14.75;12.23;;;;;;;;;;6323236;22;20007;-79
2021/11/11 10:09:02;;;;;;;17.35;12.02;;;;;;;;;;6327386;22;20007;-80
2021/11/11 10:11:32;;;;;;;17.05;11.82;;;;;;;;;;6330570;22;20043;-79
2021/11/11 10:13:59;;;;;;;15.20;11.73;;;;;;;;;;6331054;22;20025;-80
2021/11/11 10:16:26;;;;;;;14.73;11.32;;;;;;;;;;6334092;22;20011;-78
2021/11/11 10:18:54;;;;;;;19.88;12.98;;;;;;;;;;6329316;22;19994;-78
2021/11/11 10:21:44;;;;;;;18.40;13.30;;;;;;;;;;6333053;22;20055;-79
2021/11/11 10:24:13;;;;;;;20.80;13.43;;;;;;;;;;6333096;22;20009;-80
2021/11/11 10:26:42;;;;;;;19.70;14.65;;;;;;;;;;6334796;22;20003;-80
2021/11/11 10:29:30;;;;;;;19.38;13.13;;;;;;;;;;6334228;22;20004;-79
2021/11/11 10:31:58;;;;;;;17.67;12.55;;;;;;;;;;6332483;22;20046;-79
2021/11/11 10:34:24;;;;;;;18.63;12.65;;;;;;;;;;6331935;22;20000;-79
2021/11/11 10:36:52;;;;;;;19.20;13.30;;;;;;;;;;6332013;22;20056;-79
2021/11/11 10:39:21;;;;;;;19.75;15.98;;;;;;;;;;6332186;22;20044;-80
2021/11/11 10:41:52;;;;;;;18.20;14.05;;;;;;;;;;6330728;22;19995;-80
2021/11/11 10:44:26;;;;;;;19.48;13.23;;;;;;;;;;6331603;22;20030;-78
2021/11/11 10:47:03;;;;;;;18.33;13.80;;;;;;;;;;6331550;22;20086;-79
2021/11/11 10:49:31;;;;;;;17.83;13.57;;;;;;;;;;6332436;22;20026;-80
2021/11/11 10:52:17;;;;;;;16.88;13.65;;;;;;;;;;6325188;22;20019;-79
2021/11/11 10:54:58;;;;;;;18.27;13.48;;;;;;;;;;6331464;22;20431;-80
2021/11/11 10:57:36;;;;;;;20.80;14.75;;;;;;;;;;6332149;22;19995;-80
2021/11/11 11:00:08;;;;;;;18.17;13.88;;;;;;;;;;6329410;22;20371;-77
2021/11/11 11:02:48;;;;;;;21.30;14.60;;;;;;;;;;6327797;22;20008;-79
2021/11/11 11:05:14;;;;;;;19.50;13.32;;;;;;;;;;6329283;22;19983;-79
2021/11/11 11:07:40;;;;;;;18.27;13.75;;;;;;;;;;6332664;22;20049;-80
2021/11/11 11:10:10;;;;;;;17.80;13.25;;;;;;;;;;6330819;22;19999;-78
2021/11/11 11:12:43;;;;;;;19.52;13.60;;;;;;;;;;6327277;22;20027;-78
2021/11/11 11:15:09;;;;;;;22.63;13.82;;;;;;;;;;6322453;22;19995;-80
2021/11/11 11:17:35;;;;;;;16.95;12.25;;;;;;;;;;6331671;22;19980;-77
2021/11/11 11:20:20;;;;;;;22.25;14.85;;;;;;;;;;6331450;22;19988;-77
2021/11/11 11:22:46;;;;;;;19.00;13.43;;;;;;;;;;6332370;22;20042;-80
2021/11/11 11:25:15;;;;;;;19.15;13.93;;;;;;;;;;6331668;22;20037;-79
2021/11/11 11:27:50;;;;;;;19.75;13.98;;;;;;;;;;6303057;22;19999;-79
2021/11/11 11:30:38;;;;;;;18.35;13.57;;;;;;;;;;6328004;22;20086;-77
2021/11/11 11:33:29;;;;;;;18.52;14.77;;;;;;;;;;6329647;22;20015;-80
2021/11/11 11:35:56;;;;;;;19.90;14.00;;;;;;;;;;6321187;22;20018;-80
2021/11/11 11:38:23;;;;;;;29.58;21.42;;;;;;;;;;6325841;22;20010;-79
2021/11/11 11:40:50;;;;;;;19.70;15.07;;;;;;;;;;6317149;22;20085;-77
2021/11/11 11:43:39;;;;;;;20.50;15.25;;;;;;;;;;6328234;22;20025;-78
2021/11/11 11:46:19;;;;;;;23.65;14.80;;;;;;;;;;6329278;22;20003;-78
2021/11/11 11:48:45;;;;;;;19.48;14.40;;;;;;;;;;6324631;22;20035;-80
2021/11/11 11:51:13;;;;;;;18.73;13.85;;;;;;;;;;6325359;22;20022;-80
2021/11/11 11:53:46;;;;;;;22.38;16.00;;;;;;;;;;6330092;22;19999;-80
2021/11/11 11:56:39;;;;;;;21.08;16.23;;;;;;;;;;6326247;22;20003;-79
2021/11/11 11:59:06;;;;;;;19.98;14.13;;;;;;;;;;6331840;22;20029;-79
2021/11/11 12:04:27;;;;;;;19.75;14.30;;;;;;;;;;6339476;22;20018;-79
2021/11/11 12:14:32;;;;;;;19.85;13.57;;;;;;;;;;6341766;22;20035;-80
2021/11/11 12:17:29;;;;;;;17.73;13.35;;;;;;;;;;6327011;22;20003;-78
2021/11/11 12:28:47;;;;;;;19.63;13.95;;;;;;;;;;6326289;22;20037;-74
2021/11/11 12:40:18;;;;;;;23.08;15.52;;;;;;;;;;6208715;23;20000;-79
2021/11/11 12:43:19;;;;;;;24.35;17.33;;;;;;;;;;6143891;23;20463;-78
2021/11/11 12:45:49;;;;;;;19.77;14.30;;;;;;;;;;6149390;23;20047;-74
2021/11/11 12:49:01;;;;;;;;;;;;;;;;;;;;;
2021/11/11 12:51:36;;;;;;;24.70;17.02;;;;;;;;;;6147465;23;20029;-79
2021/11/11 12:54:26;;;;;;;19.95;14.25;;;;;;;;;;6137620;23;20115;-75
2021/11/11 12:57:02;;;;;;;18.58;13.73;;;;;;;;;;6117839;23;20014;-75
2021/11/11 13:02:09;;;;;;;18.15;13.85;;;;;;;;;;6286354;22;19964;-75
2021/11/11 13:04:58;;;;;;;21.65;14.25;;;;;;;;;;6328617;22;19995;-77
2021/11/11 13:07:26;;;;;;;20.92;14.60;;;;;;;;;;6334017;22;19995;-74
2021/11/11 13:10:24;;;;;;;21.10;15.43;;;;;;;;;;6334501;22;19991;-76
2021/11/11 13:13:11;;;;;;;25.13;15.90;;;;;;;;;;6332414;22;20076;-78
2021/11/11 13:16:02;;;;;;;20.88;15.07;;;;;;;;;;6328656;22;20027;-76
2021/11/11 13:18:44;;;;;;;18.70;14.23;;;;;;;;;;6318892;22;20014;-77
2021/11/11 15:44:47;;;;;;;48.08;32.72;;;;;;;;;;6217879;23;20027;-76
2021/11/11 15:45:30;;;;;;;57.47;32.28;;;;;;;;;;6331871;22;20067;-76
2021/11/11 16:23:06;;;;;;;70.03;41.95;;;;;;;;;;6264944;23;20466;-75
2021/11/11 16:28:01;;;;;;;64.57;41.80;;;;;;;;;;6275833;23;20012;-76
2021/11/11 16:30:28;;;;;;;69.50;38.83;;;;;;;;;;6267768;23;20000;-75
2021/11/11 16:32:56;;;;;;;59.33;38.80;;;;;;;;;;6267025;23;20035;-76
2021/11/11 16:35:41;;;;;;;62.97;39.58;;;;;;;;;;6264404;23;20011;-77
2021/11/11 16:38:12;;;;;;;58.08;34.20;;;;;;;;;;6233559;23;20060;-72
2021/11/11 16:40:40;;;;;;;55.70;34.85;;;;;;;;;;6206642;23;20025;-78
2021/11/11 16:43:08;;;;;;;44.10;26.10;;;;;;;;;;6233975;23;20007;-77
2021/11/11 16:45:41;;;;;;;38.83;25.40;;;;;;;;;;6238458;23;20001;-74
2021/11/11 16:48:11;;;;;;;35.20;23.15;;;;;;;;;;6210229;23;20008;-73
2021/11/11 16:50:38;;;;;;;40.30;24.55;;;;;;;;;;6231189;23;20043;-76
2021/11/11 16:53:06;;;;;;;39.67;22.23;;;;;;;;;;6235100;22;20009;-78
2021/11/11 16:55:39;;;;;;;36.42;23.83;;;;;;;;;;6249458;23;20004;-79
2021/11/11 16:58:06;;;;;;;56.63;34.35;;;;;;;;;;6267387;23;20031;-74
2021/11/11 17:00:32;;;;;;;66.80;40.65;;;;;;;;;;6269398;23;20000;-75
2021/11/11 17:02:58;;;;;;;72.68;45.25;;;;;;;;;;6242653;23;20005;-75
2021/11/11 17:05:27;;;;;;;64.82;41.97;;;;;;;;;;6263630;23;20024;-77
2021/11/11 17:07:54;;;;;;;70.18;42.78;;;;;;;;;;6242650;23;20012;-75
2021/11/11 17:10:21;;;;;;;66.65;43.42;;;;;;;;;;6263049;23;20008;-76
2021/11/11 17:12:47;;;;;;;62.58;40.67;;;;;;;;;;6269782;23;20000;-75
2021/11/11 17:15:17;;;;;;;66.22;41.50;;;;;;;;;;6245527;23;20000;-75
2021/11/11 17:17:46;;;;;;;70.68;46.80;;;;;;;;;;6271637;23;20015;-76
2021/11/11 17:20:12;;;;;;;67.55;43.85;;;;;;;;;;6270059;23;20023;-75
2021/11/11 17:22:49;;;;;;;69.97;43.33;;;;;;;;;;6268691;23;20008;-75
2021/11/11 17:30:39;;;;;;;80.15;47.40;;;;;;;;;;6279929;23;20051;-76
2021/11/11 17:33:07;;;;;;;87.43;53.85;;;;;;;;;;6268542;23;20054;-75
2021/11/11 17:35:34;;;;;;;98.45;56.15;;;;;;;;;;6267968;23;20059;-75
2021/11/11 17:38:00;;;;;;;94.72;57.17;;;;;;;;;;6244208;23;20011;-74
2021/11/11 17:40:26;;;;;;;96.60;57.33;;;;;;;;;;6329361;22;20015;-77
2021/11/11 17:42:54;;;;;;;108.15;63.58;;;;;;;;;;6332555;22;20010;-76
2021/11/11 17:45:35;;;;;;;133.45;79.22;;;;;;;;;;6333089;22;19994;-74
2021/11/11 17:48:03;;;;;;;144.43;85.10;;;;;;;;;;6333779;22;19984;-75
2021/11/11 17:50:33;;;;;;;148.88;83.00;;;;;;;;;;6331302;22;20021;-77
2021/11/11 17:53:08;;;;;;;117.85;71.40;;;;;;;;;;6331647;22;20027;-77
2021/11/11 17:55:38;;;;;;;125.00;73.97;;;;;;;;;;6334625;22;19983;-75
2021/11/11 17:58:05;;;;;;;121.25;71.85;;;;;;;;;;6333087;22;20063;-75
2021/11/11 18:00:35;;;;;;;119.35;71.13;;;;;;;;;;6331880;22;19988;-78
2021/11/11 18:03:02;;;;;;;121.13;70.30;;;;;;;;;;6326764;22;20003;-78
2021/11/11 18:05:29;;;;;;;120.63;71.25;;;;;;;;;;6327845;22;20458;-77
2021/11/11 18:08:02;;;;;;;128.02;71.72;;;;;;;;;;6327477;22;19984;-76
2021/11/11 18:10:31;;;;;;;126.45;70.05;;;;;;;;;;6328626;22;20010;-78
2021/11/11 18:13:01;;;;;;;119.22;71.20;;;;;;;;;;6327260;22;19995;-77
2021/11/11 18:15:36;;;;;;;128.73;78.45;;;;;;;;;;6328417;22;20029;-78
2021/11/11 18:18:03;;;;;;;116.55;71.32;;;;;;;;;;6329011;22;19989;-77
2021/11/11 18:20:30;;;;;;;125.13;74.65;;;;;;;;;;6325870;22;20014;-77
2021/11/11 18:22:57;;;;;;;132.85;79.90;;;;;;;;;;6330347;22;19983;-77
2021/11/11 18:25:24;;;;;;;134.93;82.65;;;;;;;;;;6331050;22;20008;-77
2021/11/11 18:27:50;;;;;;;138.85;75.15;;;;;;;;;;6332482;22;20003;-77
2021/11/11 18:32:58;;;;;;;137.02;80.30;;;;;;;;;;6340006;22;20015;-77
2021/11/11 18:35:26;;;;;;;149.68;81.72;;;;;;;;;;6330691;22;19999;-76
2021/11/11 18:37:53;;;;;;;186.60;99.30;;;;;;;;;;6329108;22;20059;-75
2021/11/11 18:40:20;;;;;;;173.60;93.18;;;;;;;;;;6329189;22;20039;-78
2021/11/11 18:42:46;;;;;;;204.38;114.45;;;;;;;;;;6326410;22;20056;-76
2021/11/11 18:45:15;;;;;;;199.23;108.68;;;;;;;;;;6322158;22;20332;-76
2021/11/11 18:50:20;;;;;;;311.50;137.45;;;;;;;;;;6336164;22;20013;-77
2021/11/11 18:52:47;;;;;;;313.80;135.63;;;;;;;;;;6324448;22;20007;-78
2021/11/11 18:55:16;;;;;;;227.85;107.03;;;;;;;;;;6330207;22;20022;-78
2021/11/11 18:57:42;;;;;;;268.33;120.25;;;;;;;;;;6330595;22;20458;-78
2021/11/11 19:00:09;;;;;;;223.25;112.25;;;;;;;;;;6328851;22;20006;-76
2021/11/11 19:02:36;;;;;;;247.80;112.88;;;;;;;;;;6326344;22;19999;-76